createdAt,value
2023-04-02T00:02:46.576Z,19.70
2023-04-02T00:07:58.444Z,20.60
2023-04-02T00:13:09.191Z,19.70
2023-04-02T00:18:18.923Z,16.60
2023-04-02T00:23:26.602Z,18.50
2023-04-02T00:28:34.314Z,20.10
2023-04-02T00:33:45.617Z,18.30
2023-04-02T00:38:53.360Z,19.70
2023-04-02T00:44:03.180Z,23.40
2023-04-02T00:49:16.850Z,20.40
2023-04-02T00:54:29.676Z,19.40
2023-04-02T00:59:50.484Z,18.20
2023-04-02T01:05:00.236Z,18.80
2023-04-02T01:10:24.411Z,18.40
2023-04-02T01:15:38.121Z,19.20
2023-04-02T01:21:07.613Z,16.20
2023-04-02T01:26:25.025Z,16.10
2023-04-02T01:31:37.679Z,16.40
2023-04-02T01:36:51.673Z,18.40
2023-04-02T01:42:07.958Z,14.60
2023-04-02T01:47:18.231Z,16.80
2023-04-02T01:52:38.533Z,15.20
2023-04-02T01:57:48.752Z,15.70
2023-04-02T02:02:56.428Z,15.70
2023-04-02T02:08:04.326Z,18.10
2023-04-02T02:13:18.002Z,18.70
2023-04-02T02:18:25.760Z,15.40
2023-04-02T02:23:33.318Z,13.80
2023-04-02T02:28:44.365Z,13.40
2023-04-02T02:33:57.171Z,14.60
2023-04-02T02:39:15.458Z,15.70
2023-04-02T02:44:29.318Z,17.40
2023-04-02T02:49:40.416Z,13.40
2023-04-02T02:54:50.337Z,15.30
2023-04-02T02:59:59.711Z,14.50
2023-04-02T03:05:09.683Z,14.50
2023-04-02T03:10:24.763Z,12.70
2023-04-02T03:15:40.137Z,13.80
2023-04-02T03:20:54.302Z,11.00
2023-04-02T03:26:10.011Z,12.70
2023-04-02T03:31:26.957Z,11.70
2023-04-02T03:36:38.855Z,10.30
2023-04-02T03:41:52.095Z,11.30
2023-04-02T03:47:06.088Z,7.50
2023-04-02T03:52:16.765Z,9.60
2023-04-02T03:57:31.540Z,8.40
2023-04-02T04:02:45.164Z,9.50
2023-04-02T04:07:57.469Z,9.50
2023-04-02T04:13:14.206Z,11.40
2023-04-02T04:18:35.324Z,9.40
2023-04-02T04:23:52.292Z,8.20
2023-04-02T04:29:10.094Z,8.80
2023-04-02T04:34:23.366Z,7.10
2023-04-02T04:39:43.736Z,61.50
2023-04-02T04:44:57.413Z,477.20
2023-04-02T04:50:11.615Z,453.50
2023-04-02T04:55:32.717Z,281.20
2023-04-02T05:00:46.615Z,251.90
2023-04-02T05:05:54.737Z,211.50
2023-04-02T05:11:07.668Z,292.80
2023-04-02T05:16:23.733Z,349.70
2023-04-02T05:21:40.446Z,412.50
2023-04-02T05:26:51.935Z,384.10
2023-04-02T05:32:06.098Z,161.40
2023-04-02T05:37:19.339Z,182.80
2023-04-02T05:42:30.980Z,218.70
2023-04-02T05:47:44.449Z,268.50
2023-04-02T05:52:58.801Z,164.30
2023-04-02T05:58:34.547Z,121.90
2023-04-02T06:03:52.164Z,232.20
2023-04-02T06:09:06.047Z,116.60
2023-04-02T06:14:15.979Z,141.60
2023-04-02T06:19:29.043Z,102.20
2023-04-02T06:24:39.333Z,130.80
2023-04-02T06:29:52.374Z,106.70
2023-04-02T06:35:00.974Z,44.30
2023-04-02T06:40:25.000Z,31.00
2023-04-02T06:45:36.605Z,30.00
2023-04-02T06:50:56.975Z,45.60
2023-04-02T06:56:08.103Z,40.40
2023-04-02T07:01:24.043Z,24.20
2023-04-02T07:06:32.298Z,38.20
2023-04-02T07:11:41.241Z,30.60
2023-04-02T07:16:49.247Z,30.00
2023-04-02T07:21:57.055Z,59.80
2023-04-02T07:27:07.920Z,27.70
2023-04-02T07:32:16.041Z,26.40
2023-04-02T07:37:23.357Z,38.60
2023-04-02T07:42:30.865Z,23.20
2023-04-02T07:47:38.328Z,17.00
2023-04-02T07:52:46.124Z,23.00
2023-04-02T07:57:55.689Z,17.20
2023-04-02T08:03:03.036Z,16.40
2023-04-02T08:08:10.503Z,21.90
2023-04-02T08:13:19.086Z,17.00
2023-04-02T08:18:27.481Z,15.50
2023-04-02T08:23:35.475Z,14.80
2023-04-02T08:28:43.251Z,17.70
2023-04-02T08:33:50.926Z,28.70
2023-04-02T08:39:01.446Z,48.30
2023-04-02T08:44:24.146Z,48.30
2023-04-02T08:49:37.809Z,26.40
2023-04-02T08:54:45.752Z,201.50
2023-04-02T09:00:00.483Z,227.00
2023-04-02T09:05:19.750Z,190.80
2023-04-02T09:10:35.601Z,396.00
2023-04-02T09:15:42.720Z,314.50
2023-04-02T09:20:50.581Z,166.20
2023-04-02T09:26:04.261Z,144.70
2023-04-02T09:31:21.671Z,88.40
2023-04-02T09:36:37.780Z,182.90
2023-04-02T09:41:50.209Z,121.90
2023-04-02T09:47:05.260Z,87.10
2023-04-02T09:52:22.411Z,90.80
2023-04-02T09:57:30.117Z,40.40
2023-04-02T10:02:37.746Z,105.40
2023-04-02T10:07:48.382Z,235.00
2023-04-02T10:13:01.908Z,215.60
2023-04-02T10:18:18.627Z,161.30
2023-04-02T10:23:29.455Z,81.30
2023-04-02T10:28:55.044Z,75.80
2023-04-02T10:34:07.380Z,100.80
2023-04-02T10:39:18.567Z,43.70
2023-04-02T10:44:44.449Z,36.90
2023-04-02T10:49:59.893Z,119.20
2023-04-02T10:55:15.663Z,102.40
2023-04-02T11:00:28.260Z,86.40
2023-04-02T11:05:44.562Z,88.90
2023-04-02T11:10:54.815Z,43.50
2023-04-02T11:16:02.502Z,31.50
2023-04-02T11:26:47.717Z,24.80
2023-04-02T11:32:31.577Z,56.20
2023-04-02T11:37:43.205Z,56.90
2023-04-02T11:42:51.709Z,24.70
2023-04-02T11:48:34.242Z,21.70
2023-04-02T11:59:00.120Z,13.90
2023-04-02T12:04:43.972Z,10.50
2023-04-02T12:09:54.405Z,10.20
2023-04-02T12:15:02.783Z,13.00
2023-04-02T12:20:33.751Z,12.10
2023-04-02T12:25:42.073Z,8.90
2023-04-02T12:30:50.624Z,8.40
2023-04-02T12:36:02.023Z,9.50
2023-04-02T12:41:22.005Z,13.00
2023-04-02T12:46:29.700Z,10.00
2023-04-02T12:51:38.237Z,11.10
2023-04-02T12:56:45.924Z,12.00
2023-04-02T13:02:02.103Z,13.60
2023-04-02T13:07:18.191Z,10.50
2023-04-02T13:12:34.379Z,10.90
2023-04-02T13:17:44.119Z,11.30
2023-04-02T13:22:51.640Z,9.90
2023-04-02T13:27:59.547Z,9.00
2023-04-02T13:33:07.171Z,7.90
2023-04-02T13:38:14.946Z,10.00
2023-04-02T13:43:23.697Z,8.10
2023-04-02T13:48:31.048Z,6.10
2023-04-02T13:53:38.551Z,18.90
2023-04-02T13:58:47.215Z,18.80
2023-04-02T14:03:55.411Z,11.50
2023-04-02T14:09:06.022Z,5.80
2023-04-02T14:14:36.334Z,5.90
2023-04-02T14:20:06.848Z,5.40
2023-04-02T14:25:22.473Z,7.50
2023-04-02T14:30:38.844Z,9.60
2023-04-02T14:35:52.171Z,9.70
2023-04-02T14:41:06.568Z,11.80
2023-04-02T14:46:14.078Z,8.50
2023-04-02T14:51:28.548Z,8.20
2023-04-02T14:56:41.110Z,9.90
2023-04-02T15:01:51.830Z,13.10
2023-04-02T15:07:04.758Z,11.20
2023-04-02T15:12:16.524Z,7.50
2023-04-02T15:17:24.267Z,9.00
2023-04-02T15:22:40.092Z,9.60
2023-04-02T15:28:02.021Z,4.10
2023-04-02T15:33:36.330Z,5.70
2023-04-02T15:38:46.449Z,7.20
2023-04-02T15:44:04.590Z,5.30
2023-04-02T15:49:28.699Z,5.20
2023-04-02T15:54:55.064Z,10.50
2023-04-02T16:00:31.213Z,6.30
2023-04-02T16:05:44.636Z,12.30
2023-04-02T16:10:51.893Z,13.00
2023-04-02T16:16:05.944Z,5.60
2023-04-02T16:21:16.479Z,6.30
2023-04-02T16:26:41.011Z,8.10
2023-04-02T16:31:54.504Z,6.50
2023-04-02T16:37:10.598Z,7.60
2023-04-02T16:42:30.087Z,8.50
2023-04-02T16:47:57.914Z,10.50
2023-04-02T16:53:15.189Z,6.60
2023-04-02T16:58:36.506Z,6.70
2023-04-02T17:04:08.821Z,4.60
2023-04-02T17:14:40.670Z,4.00
2023-04-02T17:19:49.535Z,8.20
2023-04-02T17:25:00.339Z,44.50
2023-04-02T17:30:14.873Z,74.80
2023-04-02T17:35:32.524Z,120.30
2023-04-02T17:40:44.947Z,66.20
2023-04-02T17:45:56.682Z,30.00
2023-04-02T17:51:17.263Z,35.60
2023-04-02T17:56:40.757Z,47.70
2023-04-02T18:01:52.594Z,29.60
2023-04-02T18:07:22.596Z,33.80
2023-04-02T18:12:43.639Z,55.30
2023-04-02T18:17:55.467Z,35.80
2023-04-02T18:23:13.247Z,55.50
2023-04-02T18:28:48.366Z,25.70
2023-04-02T18:34:20.264Z,19.80
2023-04-02T18:39:38.664Z,14.50
2023-04-02T18:44:57.624Z,128.90
2023-04-02T18:50:17.629Z,129.50
2023-04-02T18:55:28.705Z,173.60
2023-04-02T19:00:40.918Z,116.30
2023-04-02T19:05:53.631Z,84.90
2023-04-02T19:11:03.653Z,57.60
2023-04-02T19:16:35.700Z,58.70
2023-04-02T19:21:56.218Z,50.10
2023-04-02T19:27:10.199Z,26.10
2023-04-02T19:32:29.254Z,17.30
2023-04-02T19:37:41.999Z,23.00
2023-04-02T19:42:51.104Z,25.30
2023-04-02T19:48:00.368Z,15.10
2023-04-02T19:53:07.705Z,14.90
2023-04-02T19:58:20.362Z,13.90
2023-04-02T20:03:28.027Z,14.80
2023-04-02T20:08:36.658Z,12.50
2023-04-02T20:13:43.882Z,10.60
2023-04-02T20:18:51.368Z,8.20
2023-04-02T20:23:58.585Z,6.80
2023-04-02T20:29:05.753Z,5.80
2023-04-02T20:34:14.142Z,6.30
2023-04-02T20:39:21.978Z,6.20
2023-04-02T20:44:29.205Z,3.40
2023-04-02T20:49:36.874Z,5.30
2023-04-02T20:54:44.248Z,2.90
2023-04-02T20:59:51.686Z,3.70
2023-04-02T21:04:59.428Z,1.90
2023-04-02T21:10:07.288Z,3.10
2023-04-02T21:15:15.103Z,3.30
2023-04-02T21:20:22.331Z,5.30
2023-04-02T21:25:29.654Z,3.70
2023-04-02T21:30:36.849Z,3.60
2023-04-02T21:35:44.076Z,1.80
2023-04-02T21:40:51.301Z,3.10
2023-04-02T21:46:01.898Z,2.10
2023-04-02T21:51:14.413Z,3.90
2023-04-02T21:56:23.118Z,4.00
2023-04-02T22:01:33.877Z,3.30
2023-04-02T22:06:43.465Z,4.70
2023-04-02T22:11:53.137Z,3.50
2023-04-02T22:17:00.513Z,2.60
2023-04-02T22:22:07.890Z,4.20
2023-04-02T22:27:15.207Z,2.20
2023-04-02T22:32:22.695Z,2.90
2023-04-02T22:37:34.314Z,1.80
2023-04-02T22:42:41.512Z,3.60
2023-04-02T22:47:48.657Z,3.90
2023-04-02T22:52:56.325Z,5.00
2023-04-02T22:58:03.529Z,2.40
2023-04-02T23:03:10.745Z,3.80
2023-04-02T23:08:18.195Z,6.60
2023-04-02T23:13:25.623Z,4.20
2023-04-02T23:18:33.114Z,5.40
2023-04-02T23:23:40.647Z,4.10
2023-04-02T23:28:48.507Z,4.30
2023-04-02T23:33:56.162Z,4.10
2023-04-02T23:39:08.360Z,2.30
2023-04-02T23:44:15.898Z,2.40
2023-04-02T23:49:23.146Z,2.70
2023-04-02T23:54:30.755Z,2.80
2023-04-02T23:59:40.455Z,3.50
